Firenze / Peretola Airport LIRQ

Flugplatz Daten

Name: Firenze / Peretola Airport

Ident: LIRQ

Lat: 43,81000137

Long: 11,20510006

Platzhöhe: 142 ft

IataCode: FLR

City: Firenze

Homepage: http://www.aeroporto.firenze.it/

Metar

2021/12/03 23:20
LIRQ 032320Z 20005KT 170V300 CAVOK 04/01 Q1015

Taf

2021/12/03 18:21
TAF LIRQ 031700Z 0318/0418 31010KT 9999 FEW030
BECMG 0321/0323 VRB05KT
TEMPO 0400/0406 4000 BR
Gewünschte Webcam nicht vorhanden? Dann fügen Sie eine hinzu. Sie wird dann so schnell wie möglich freigeschaltet
Url: Title: